sensor_id;sensor_type;location;lat;lon;timestamp;temperature;humidity
43627;DHT22;29217;52.586;13.442;2022-12-29T11:15:26;12.30;99.90
43627;DHT22;29217;52.586;13.442;2022-12-29T11:17:57;12.40;99.90
43627;DHT22;29217;52.586;13.442;2022-12-29T11:20:35;12.20;99.90
43627;DHT22;29217;52.586;13.442;2022-12-29T11:23:04;12.40;99.90
43627;DHT22;29217;52.586;13.442;2022-12-29T11:25:30;12.40;99.90
43627;DHT22;29217;52.586;13.442;2022-12-29T11:28:25;12.30;99.90
43627;DHT22;29217;52.586;13.442;2022-12-29T11:31:00;12.40;99.90
43627;DHT22;29217;52.586;13.442;2022-12-29T11:33:28;12.40;99.90
43627;DHT22;29217;52.586;13.442;2022-12-29T11:36:19;12.50;99.90
43627;DHT22;29217;52.586;13.442;2022-12-29T11:38:53;12.50;99.90
43627;DHT22;29217;52.586;13.442;2022-12-29T11:41:25;12.30;99.90
43627;DHT22;29217;52.586;13.442;2022-12-29T11:43:52;12.30;99.90
43627;DHT22;29217;52.586;13.442;2022-12-29T11:46:27;12.30;99.90
43627;DHT22;29217;52.586;13.442;2022-12-29T11:48:56;12.40;99.90
43627;DHT22;29217;52.586;13.442;2022-12-29T11:51:28;12.30;99.90
43627;DHT22;29217;52.586;13.442;2022-12-29T11:53:59;12.50;99.90
43627;DHT22;29217;52.586;13.442;2022-12-29T11:56:39;12.30;99.90
43627;DHT22;29217;52.586;13.442;2022-12-29T12:01:53;12.10;99.90
43627;DHT22;29217;52.586;13.442;2022-12-29T12:04:21;12.00;99.90
43627;DHT22;29217;52.586;13.442;2022-12-29T12:07:03;11.90;99.90
43627;DHT22;29217;52.586;13.442;2022-12-29T12:09:36;11.90;99.90
43627;DHT22;29217;52.586;13.442;2022-12-29T12:12:05;11.90;99.90
43627;DHT22;29217;52.586;13.442;2022-12-29T12:14:45;11.80;99.90
43627;DHT22;29217;52.586;13.442;2022-12-29T12:17:19;11.50;99.90
43627;DHT22;29217;52.586;13.442;2022-12-29T12:19:57;11.50;99.90
43627;DHT22;29217;52.586;13.442;2022-12-29T12:22:35;11.30;99.90
43627;DHT22;29217;52.586;13.442;2022-12-29T12:30:48;11.10;99.90
43627;DHT22;29217;52.586;13.442;2022-12-29T12:41:38;10.90;99.90
43627;DHT22;29217;52.586;13.442;2022-12-29T12:44:37;10.90;99.90
43627;DHT22;29217;52.586;13.442;2022-12-29T12:47:28;11.00;99.90
43627;DHT22;29217;52.586;13.442;2022-12-29T12:50:10;10.90;99.90
43627;DHT22;29217;52.586;13.442;2022-12-29T13:01:50;10.90;99.90
43627;DHT22;29217;52.586;13.442;2022-12-29T13:07:11;11.10;99.90
43627;DHT22;29217;52.586;13.442;2022-12-29T13:15:55;11.70;99.90
43627;DHT22;29217;52.586;13.442;2022-12-29T13:26:08;11.90;99.90
43627;DHT22;29217;52.586;13.442;2022-12-29T13:28:54;11.80;99.90
43627;DHT22;29217;52.586;13.442;2022-12-29T13:34:12;11.80;99.90
43627;DHT22;29217;52.586;13.442;2022-12-29T13:36:49;11.50;99.90
43627;DHT22;29217;52.586;13.442;2022-12-29T13:39:24;11.40;99.90
43627;DHT22;29217;52.586;13.442;2022-12-29T13:41:54;11.50;99.90
43627;DHT22;29217;52.586;13.442;2022-12-29T13:44:52;11.40;99.90
43627;DHT22;29217;52.586;13.442;2022-12-29T13:47:31;11.20;99.90
43627;DHT22;29217;52.586;13.442;2022-12-29T13:50:00;11.30;99.90
43627;DHT22;29217;52.586;13.442;2022-12-29T13:52:51;11.20;99.90
43627;DHT22;29217;52.586;13.442;2022-12-29T13:55:35;11.20;99.90
43627;DHT22;29217;52.586;13.442;2022-12-29T14:03:56;11.10;99.90
43627;DHT22;29217;52.586;13.442;2022-12-29T14:08:56;11.20;99.90
43627;DHT22;29217;52.586;13.442;2022-12-29T14:11:28;11.00;99.90
43627;DHT22;29217;52.586;13.442;2022-12-29T14:13:55;11.10;99.90
43627;DHT22;29217;52.586;13.442;2022-12-29T14:16:30;11.00;99.90
43627;DHT22;29217;52.586;13.442;2022-12-29T14:21:54;11.10;99.90
43627;DHT22;29217;52.586;13.442;2022-12-29T14:26:58;10.70;99.90
43627;DHT22;29217;52.586;13.442;2022-12-29T14:31:50;10.80;99.90
43627;DHT22;29217;52.586;13.442;2022-12-29T14:34:29;10.90;99.90
43627;DHT22;29217;52.586;13.442;2022-12-29T14:37:02;10.90;99.90
43627;DHT22;29217;52.586;13.442;2022-12-29T14:39:44;10.80;99.90
43627;DHT22;29217;52.586;13.442;2022-12-29T14:44:50;10.80;99.90
43627;DHT22;29217;52.586;13.442;2022-12-29T14:47:32;10.70;99.90
43627;DHT22;29217;52.586;13.442;2022-12-29T14:50:14;10.80;99.90
43627;DHT22;29217;52.586;13.442;2022-12-29T14:52:53;10.80;99.90
43627;DHT22;29217;52.586;13.442;2022-12-29T14:55:47;10.80;99.90
43627;DHT22;29217;52.586;13.442;2022-12-29T14:58:31;10.80;99.90
43627;DHT22;29217;52.586;13.442;2022-12-29T15:00:58;10.90;99.90
43627;DHT22;29217;52.586;13.442;2022-12-29T15:05:59;10.90;99.90
43627;DHT22;29217;52.586;13.442;2022-12-29T15:08:33;10.90;99.90
43627;DHT22;29217;52.586;13.442;2022-12-29T15:11:09;10.80;99.90
43627;DHT22;29217;52.586;13.442;2022-12-29T15:13:38;10.80;99.90
43627;DHT22;29217;52.586;13.442;2022-12-29T15:16:12;10.70;99.90
43627;DHT22;29217;52.586;13.442;2022-12-29T15:18:45;10.90;99.90
43627;DHT22;29217;52.586;13.442;2022-12-29T15:21:13;10.90;99.90
43627;DHT22;29217;52.586;13.442;2022-12-29T15:23:44;11.00;99.90
43627;DHT22;29217;52.586;13.442;2022-12-29T15:26:11;11.00;99.90
43627;DHT22;29217;52.586;13.442;2022-12-29T15:28:42;10.50;99.90
43627;DHT22;29217;52.586;13.442;2022-12-29T15:31:13;10.50;99.90
43627;DHT22;29217;52.586;13.442;2022-12-29T15:33:44;10.10;99.90
43627;DHT22;29217;52.586;13.442;2022-12-29T15:36:13;10.20;99.90
43627;DHT22;29217;52.586;13.442;2022-12-29T15:38:39;10.20;99.90
43627;DHT22;29217;52.586;13.442;2022-12-29T15:41:25;10.00;99.90
43627;DHT22;29217;52.586;13.442;2022-12-29T15:44:01;9.70;99.90
43627;DHT22;29217;52.586;13.442;2022-12-29T15:46:30;9.80;99.90
43627;DHT22;29217;52.586;13.442;2022-12-29T15:48:56;9.80;99.90
43627;DHT22;29217;52.586;13.442;2022-12-29T15:51:30;9.60;99.90
43627;DHT22;29217;52.586;13.442;2022-12-29T15:53:57;9.70;99.90
43627;DHT22;29217;52.586;13.442;2022-12-29T15:56:23;9.70;99.90
43627;DHT22;29217;52.586;13.442;2022-12-29T15:58:51;9.70;99.90
43627;DHT22;29217;52.586;13.442;2022-12-29T16:01:33;9.50;99.90
43627;DHT22;29217;52.586;13.442;2022-12-29T16:04:04;9.50;99.90
43627;DHT22;29217;52.586;13.442;2022-12-29T16:06:38;9.60;99.90
43627;DHT22;29217;52.586;13.442;2022-12-29T16:09:06;9.60;99.90
43627;DHT22;29217;52.586;13.442;2022-12-29T16:11:38;9.60;99.90
43627;DHT22;29217;52.586;13.442;2022-12-29T16:14:18;9.60;99.90
43627;DHT22;29217;52.586;13.442;2022-12-29T16:16:45;9.50;99.90
43627;DHT22;29217;52.586;13.442;2022-12-29T16:19:21;9.70;99.90
43627;DHT22;29217;52.586;13.442;2022-12-29T16:21:48;9.70;99.90
43627;DHT22;29217;52.586;13.442;2022-12-29T16:24:16;9.70;99.90
43627;DHT22;29217;52.586;13.442;2022-12-29T16:26:48;9.80;99.90
43627;DHT22;29217;52.586;13.442;2022-12-29T16:29:14;9.80;99.90
43627;DHT22;29217;52.586;13.442;2022-12-29T16:31:51;9.80;99.90
43627;DHT22;29217;52.586;13.442;2022-12-29T16:34:33;9.80;99.90
43627;DHT22;29217;52.586;13.442;2022-12-29T16:37:04;9.70;99.90
43627;DHT22;29217;52.586;13.442;2022-12-29T16:39:30;9.60;99.90
43627;DHT22;29217;52.586;13.442;2022-12-29T16:41:57;9.60;99.90
43627;DHT22;29217;52.586;13.442;2022-12-29T16:44:25;9.50;99.90
43627;DHT22;29217;52.586;13.442;2022-12-29T16:47:31;9.60;99.90
43627;DHT22;29217;52.586;13.442;2022-12-29T16:49:52;9.60;99.90
43627;DHT22;29217;52.586;13.442;2022-12-29T16:52:25;9.70;99.90
43627;DHT22;29217;52.586;13.442;2022-12-29T16:54:56;9.70;99.90
43627;DHT22;29217;52.586;13.442;2022-12-29T16:57:30;9.80;99.90
43627;DHT22;29217;52.586;13.442;2022-12-29T17:00:02;9.90;99.90
43627;DHT22;29217;52.586;13.442;2022-12-29T17:02:31;10.10;99.90
43627;DHT22;29217;52.586;13.442;2022-12-29T17:04:57;10.00;99.90
43627;DHT22;29217;52.586;13.442;2022-12-29T17:07:25;10.10;99.90
43627;DHT22;29217;52.586;13.442;2022-12-29T17:09:52;9.90;99.90
43627;DHT22;29217;52.586;13.442;2022-12-29T17:12:26;10.10;99.90
43627;DHT22;29217;52.586;13.442;2022-12-29T17:14:55;10.00;99.90
43627;DHT22;29217;52.586;13.442;2022-12-29T17:20:04;9.90;99.90
43627;DHT22;29217;52.586;13.442;2022-12-29T17:22:30;10.10;99.90
43627;DHT22;29217;52.586;13.442;2022-12-29T17:24:58;10.10;99.90
43627;DHT22;29217;52.586;13.442;2022-12-29T17:29:53;10.20;99.90
43627;DHT22;29217;52.586;13.442;2022-12-29T17:32:20;10.30;99.90
43627;DHT22;29217;52.586;13.442;2022-12-29T17:34:46;10.40;99.90
43627;DHT22;29217;52.586;13.442;2022-12-29T17:37:35;10.50;99.90
43627;DHT22;29217;52.586;13.442;2022-12-29T17:40:03;10.50;99.90
43627;DHT22;29217;52.586;13.442;2022-12-29T17:42:29;10.60;99.90
43627;DHT22;29217;52.586;13.442;2022-12-29T17:44:58;10.60;99.90
43627;DHT22;29217;52.586;13.442;2022-12-29T17:47:24;10.60;99.90
43627;DHT22;29217;52.586;13.442;2022-12-29T17:49:49;10.60;99.90
43627;DHT22;29217;52.586;13.442;2022-12-29T17:52:15;10.70;99.90
43627;DHT22;29217;52.586;13.442;2022-12-29T17:54:45;10.70;99.90
43627;DHT22;29217;52.586;13.442;2022-12-29T17:57:15;10.60;99.90
43627;DHT22;29217;52.586;13.442;2022-12-29T17:59:41;10.40;99.90
43627;DHT22;29217;52.586;13.442;2022-12-29T18:02:28;10.50;99.90
43627;DHT22;29217;52.586;13.442;2022-12-29T18:04:56;10.40;99.90
43627;DHT22;29217;52.586;13.442;2022-12-29T18:07:22;10.50;99.90
43627;DHT22;29217;52.586;13.442;2022-12-29T18:09:47;10.40;99.90
43627;DHT22;29217;52.586;13.442;2022-12-29T18:12:31;10.40;99.90
43627;DHT22;29217;52.586;13.442;2022-12-29T18:14:57;10.30;99.90
43627;DHT22;29217;52.586;13.442;2022-12-29T18:17:23;10.30;99.90
43627;DHT22;29217;52.586;13.442;2022-12-29T18:19:49;10.30;99.90
43627;DHT22;29217;52.586;13.442;2022-12-29T18:22:19;10.20;99.90
43627;DHT22;29217;52.586;13.442;2022-12-29T18:24:44;10.30;99.90
43627;DHT22;29217;52.586;13.442;2022-12-29T18:27:14;10.20;99.90
43627;DHT22;29217;52.586;13.442;2022-12-29T18:29:40;10.40;99.90
43627;DHT22;29217;52.586;13.442;2022-12-29T18:32:12;10.10;99.90
43627;DHT22;29217;52.586;13.442;2022-12-29T18:34:40;10.10;99.90
43627;DHT22;29217;52.586;13.442;2022-12-29T18:37:05;10.00;99.90
43627;DHT22;29217;52.586;13.442;2022-12-29T18:39:31;10.10;99.90
43627;DHT22;29217;52.586;13.442;2022-12-29T18:41:57;10.10;99.90
43627;DHT22;29217;52.586;13.442;2022-12-29T18:44:22;10.00;99.90
43627;DHT22;29217;52.586;13.442;2022-12-29T18:46:49;10.10;99.90
43627;DHT22;29217;52.586;13.442;2022-12-29T18:49:14;10.10;99.90
43627;DHT22;29217;52.586;13.442;2022-12-29T18:51:40;10.10;99.90
43627;DHT22;29217;52.586;13.442;2022-12-29T18:56:51;10.10;99.90
43627;DHT22;29217;52.586;13.442;2022-12-29T18:59:17;10.00;99.90
43627;DHT22;29217;52.586;13.442;2022-12-29T19:01:42;10.00;99.90
43627;DHT22;29217;52.586;13.442;2022-12-29T19:04:11;10.20;99.90
43627;DHT22;29217;52.586;13.442;2022-12-29T19:06:37;10.20;99.90
43627;DHT22;29217;52.586;13.442;2022-12-29T19:09:03;10.10;99.90
43627;DHT22;29217;52.586;13.442;2022-12-29T19:11:28;10.20;99.90
43627;DHT22;29217;52.586;13.442;2022-12-29T19:13:54;10.10;99.90
43627;DHT22;29217;52.586;13.442;2022-12-29T19:16:21;10.10;99.90
43627;DHT22;29217;52.586;13.442;2022-12-29T19:18:48;10.10;99.90
43627;DHT22;29217;52.586;13.442;2022-12-29T19:21:13;10.10;99.90
43627;DHT22;29217;52.586;13.442;2022-12-29T19:23:39;10.10;99.90
43627;DHT22;29217;52.586;13.442;2022-12-29T19:26:05;10.10;99.90
43627;DHT22;29217;52.586;13.442;2022-12-29T19:28:30;10.10;99.90
43627;DHT22;29217;52.586;13.442;2022-12-29T19:31:01;10.10;99.90
43627;DHT22;29217;52.586;13.442;2022-12-29T19:33:27;10.10;99.90
43627;DHT22;29217;52.586;13.442;2022-12-29T19:36:00;9.80;99.90
43627;DHT22;29217;52.586;13.442;2022-12-29T19:38:26;9.90;99.90
43627;DHT22;29217;52.586;13.442;2022-12-29T19:40:52;9.80;99.90
43627;DHT22;29217;52.586;13.442;2022-12-29T19:43:17;9.70;99.90
43627;DHT22;29217;52.586;13.442;2022-12-29T19:45:44;9.70;99.90
43627;DHT22;29217;52.586;13.442;2022-12-29T19:48:15;9.60;99.90
43627;DHT22;29217;52.586;13.442;2022-12-29T19:50:41;9.60;99.90
43627;DHT22;29217;52.586;13.442;2022-12-29T19:53:08;9.60;99.90
43627;DHT22;29217;52.586;13.442;2022-12-29T19:55:33;9.70;99.90
43627;DHT22;29217;52.586;13.442;2022-12-29T19:57:59;9.50;99.90
43627;DHT22;29217;52.586;13.442;2022-12-29T20:00:25;9.70;99.90
43627;DHT22;29217;52.586;13.442;2022-12-29T20:02:50;9.80;99.90
43627;DHT22;29217;52.586;13.442;2022-12-29T20:05:16;9.70;99.90
43627;DHT22;29217;52.586;13.442;2022-12-29T20:07:42;9.50;99.90
43627;DHT22;29217;52.586;13.442;2022-12-29T20:10:08;9.70;99.90
43627;DHT22;29217;52.586;13.442;2022-12-29T20:12:34;9.60;99.90
43627;DHT22;29217;52.586;13.442;2022-12-29T20:15:02;9.60;99.90
43627;DHT22;29217;52.586;13.442;2022-12-29T20:17:28;9.70;99.90
43627;DHT22;29217;52.586;13.442;2022-12-29T20:19:54;9.70;99.90
43627;DHT22;29217;52.586;13.442;2022-12-29T20:22:19;9.50;99.90
43627;DHT22;29217;52.586;13.442;2022-12-29T20:24:46;9.70;99.90
43627;DHT22;29217;52.586;13.442;2022-12-29T20:27:12;9.70;99.90
43627;DHT22;29217;52.586;13.442;2022-12-29T20:29:39;9.60;99.90
43627;DHT22;29217;52.586;13.442;2022-12-29T20:32:15;9.70;99.90
43627;DHT22;29217;52.586;13.442;2022-12-29T20:34:43;9.60;99.90
43627;DHT22;29217;52.586;13.442;2022-12-29T20:37:09;9.60;99.90
43627;DHT22;29217;52.586;13.442;2022-12-29T20:39:35;9.80;99.90
43627;DHT22;29217;52.586;13.442;2022-12-29T20:42:01;9.70;99.90
43627;DHT22;29217;52.586;13.442;2022-12-29T20:44:28;9.70;99.90
43627;DHT22;29217;52.586;13.442;2022-12-29T20:46:54;9.60;99.90
43627;DHT22;29217;52.586;13.442;2022-12-29T20:49:19;9.60;99.90
43627;DHT22;29217;52.586;13.442;2022-12-29T20:51:45;9.70;99.90
43627;DHT22;29217;52.586;13.442;2022-12-29T20:54:12;9.60;99.90
43627;DHT22;29217;52.586;13.442;2022-12-29T20:56:37;9.60;99.90
43627;DHT22;29217;52.586;13.442;2022-12-29T20:59:03;9.50;99.90
43627;DHT22;29217;52.586;13.442;2022-12-29T21:01:31;9.60;99.90
43627;DHT22;29217;52.586;13.442;2022-12-29T21:03:57;9.70;99.90
43627;DHT22;29217;52.586;13.442;2022-12-29T21:06:22;9.50;99.90
43627;DHT22;29217;52.586;13.442;2022-12-29T21:08:48;9.70;99.90
43627;DHT22;29217;52.586;13.442;2022-12-29T21:11:16;9.60;99.90
43627;DHT22;29217;52.586;13.442;2022-12-29T21:13:41;9.80;99.90
43627;DHT22;29217;52.586;13.442;2022-12-29T21:16:09;9.70;99.90
43627;DHT22;29217;52.586;13.442;2022-12-29T21:18:35;9.70;99.90
43627;DHT22;29217;52.586;13.442;2022-12-29T21:21:13;9.60;99.90
43627;DHT22;29217;52.586;13.442;2022-12-29T21:23:39;9.70;99.90
43627;DHT22;29217;52.586;13.442;2022-12-29T21:26:06;9.70;99.90
43627;DHT22;29217;52.586;13.442;2022-12-29T21:28:33;9.70;99.90
43627;DHT22;29217;52.586;13.442;2022-12-29T21:31:33;9.80;99.90
43627;DHT22;29217;52.586;13.442;2022-12-29T21:34:00;9.60;99.90
43627;DHT22;29217;52.586;13.442;2022-12-29T21:36:27;9.70;99.90
43627;DHT22;29217;52.586;13.442;2022-12-29T21:38:53;9.80;99.90
43627;DHT22;29217;52.586;13.442;2022-12-29T21:41:19;9.70;99.90
43627;DHT22;29217;52.586;13.442;2022-12-29T21:43:46;9.80;99.90
43627;DHT22;29217;52.586;13.442;2022-12-29T21:46:35;9.70;99.90
43627;DHT22;29217;52.586;13.442;2022-12-29T21:49:01;9.90;99.90
43627;DHT22;29217;52.586;13.442;2022-12-29T21:51:27;9.90;99.90
43627;DHT22;29217;52.586;13.442;2022-12-29T21:54:11;9.80;99.90
43627;DHT22;29217;52.586;13.442;2022-12-29T21:56:55;9.70;99.90
43627;DHT22;29217;52.586;13.442;2022-12-29T21:59:20;9.80;99.90
43627;DHT22;29217;52.586;13.442;2022-12-29T22:02:19;9.70;99.90
43627;DHT22;29217;52.586;13.442;2022-12-29T22:05:04;9.60;99.90
43627;DHT22;29217;52.586;13.442;2022-12-29T22:07:49;9.50;99.90
43627;DHT22;29217;52.586;13.442;2022-12-29T22:10:38;9.80;99.90
43627;DHT22;29217;52.586;13.442;2022-12-29T22:13:22;9.50;99.90
43627;DHT22;29217;52.586;13.442;2022-12-29T22:15:48;9.60;99.90
43627;DHT22;29217;52.586;13.442;2022-12-29T22:18:13;9.50;99.90
43627;DHT22;29217;52.586;13.442;2022-12-29T22:20:39;9.40;99.90
43627;DHT22;29217;52.586;13.442;2022-12-29T22:23:04;9.50;99.90
43627;DHT22;29217;52.586;13.442;2022-12-29T22:25:31;9.30;99.90
43627;DHT22;29217;52.586;13.442;2022-12-29T22:27:57;9.40;99.90
43627;DHT22;29217;52.586;13.442;2022-12-29T22:30:23;9.40;99.90
43627;DHT22;29217;52.586;13.442;2022-12-29T22:32:49;9.30;99.90
43627;DHT22;29217;52.586;13.442;2022-12-29T22:35:15;9.30;99.90
43627;DHT22;29217;52.586;13.442;2022-12-29T22:37:41;9.30;99.90
43627;DHT22;29217;52.586;13.442;2022-12-29T22:40:08;9.50;99.90
43627;DHT22;29217;52.586;13.442;2022-12-29T22:42:35;9.30;99.90
43627;DHT22;29217;52.586;13.442;2022-12-29T22:45:01;9.60;99.90
43627;DHT22;29217;52.586;13.442;2022-12-29T22:47:27;9.50;99.90
43627;DHT22;29217;52.586;13.442;2022-12-29T22:49:52;9.50;99.90
43627;DHT22;29217;52.586;13.442;2022-12-29T22:52:18;9.50;99.90
43627;DHT22;29217;52.586;13.442;2022-12-29T22:54:43;9.50;99.90
43627;DHT22;29217;52.586;13.442;2022-12-29T22:57:09;9.50;99.90
43627;DHT22;29217;52.586;13.442;2022-12-29T22:59:35;9.40;99.90
43627;DHT22;29217;52.586;13.442;2022-12-29T23:02:00;9.40;99.90
43627;DHT22;29217;52.586;13.442;2022-12-29T23:04:26;9.40;99.90
43627;DHT22;29217;52.586;13.442;2022-12-29T23:06:51;9.50;99.90
43627;DHT22;29217;52.586;13.442;2022-12-29T23:09:20;9.40;99.90
43627;DHT22;29217;52.586;13.442;2022-12-29T23:11:46;9.40;99.90
43627;DHT22;29217;52.586;13.442;2022-12-29T23:14:12;9.50;99.90
43627;DHT22;29217;52.586;13.442;2022-12-29T23:16:38;9.60;99.90
43627;DHT22;29217;52.586;13.442;2022-12-29T23:19:04;9.60;99.90
43627;DHT22;29217;52.586;13.442;2022-12-29T23:21:30;9.50;99.90
43627;DHT22;29217;52.586;13.442;2022-12-29T23:23:56;9.60;99.90
43627;DHT22;29217;52.586;13.442;2022-12-29T23:26:26;9.40;99.90
43627;DHT22;29217;52.586;13.442;2022-12-29T23:28:54;9.40;99.90
43627;DHT22;29217;52.586;13.442;2022-12-29T23:31:20;9.50;99.90
43627;DHT22;29217;52.586;13.442;2022-12-29T23:33:46;9.50;99.90
43627;DHT22;29217;52.586;13.442;2022-12-29T23:36:12;9.60;99.90
43627;DHT22;29217;52.586;13.442;2022-12-29T23:38:37;9.40;99.90
43627;DHT22;29217;52.586;13.442;2022-12-29T23:41:03;9.40;99.90
43627;DHT22;29217;52.586;13.442;2022-12-29T23:43:29;9.40;99.90
43627;DHT22;29217;52.586;13.442;2022-12-29T23:45:54;9.50;99.90
43627;DHT22;29217;52.586;13.442;2022-12-29T23:48:20;9.50;99.90
43627;DHT22;29217;52.586;13.442;2022-12-29T23:50:46;9.40;99.90
43627;DHT22;29217;52.586;13.442;2022-12-29T23:53:12;9.30;99.90
43627;DHT22;29217;52.586;13.442;2022-12-29T23:55:40;9.50;99.90
43627;DHT22;29217;52.586;13.442;2022-12-29T23:58:07;9.30;99.90
